createdAt,value
2022-12-09T00:01:29.664Z,8.10
2022-12-09T00:03:56.988Z,8.03
2022-12-09T00:06:26.658Z,8.30
2022-12-09T00:08:54.723Z,7.73
2022-12-09T00:11:22.453Z,7.67
2022-12-09T00:13:56.931Z,7.90
2022-12-09T00:16:24.766Z,7.77
2022-12-09T00:18:52.051Z,8.37
2022-12-09T00:21:21.309Z,7.93
2022-12-09T00:23:49.018Z,8.30
2022-12-09T00:26:16.413Z,8.67
2022-12-09T00:28:43.602Z,7.97
2022-12-09T00:31:14.454Z,8.67
2022-12-09T00:33:41.498Z,8.10
2022-12-09T00:36:11.135Z,8.47
2022-12-09T00:38:38.621Z,8.53
2022-12-09T00:41:05.717Z,8.50
2022-12-09T00:43:33.052Z,8.93
2022-12-09T00:45:59.947Z,8.47
2022-12-09T00:48:27.292Z,9.10
2022-12-09T00:50:54.429Z,8.70
2022-12-09T00:53:21.442Z,8.73
2022-12-09T00:55:48.389Z,8.63
2022-12-09T00:58:15.021Z,8.73
2022-12-09T01:00:41.951Z,9.13
2022-12-09T01:03:13.910Z,8.43
2022-12-09T01:05:41.823Z,9.13
2022-12-09T01:08:09.922Z,9.63
2022-12-09T01:10:37.927Z,8.87
2022-12-09T01:13:04.582Z,8.57
2022-12-09T01:15:31.303Z,9.07
2022-12-09T01:17:57.932Z,9.93
2022-12-09T01:20:25.176Z,9.33
2022-12-09T01:22:51.993Z,9.13
2022-12-09T01:25:18.905Z,9.07
2022-12-09T01:27:45.747Z,9.17
2022-12-09T01:30:13.989Z,8.53
2022-12-09T01:32:41.748Z,9.03
2022-12-09T01:35:08.888Z,9.50
2022-12-09T01:37:36.899Z,8.97
2022-12-09T01:40:07.429Z,9.47
2022-12-09T01:42:34.543Z,9.67
2022-12-09T01:45:19.875Z,9.93
2022-12-09T01:47:56.412Z,9.70
2022-12-09T01:50:25.287Z,10.00
2022-12-09T01:52:51.943Z,10.30
2022-12-09T01:55:19.684Z,10.23
2022-12-09T01:57:46.670Z,11.33
2022-12-09T02:00:14.069Z,10.70
2022-12-09T02:02:43.690Z,10.50
2022-12-09T02:05:10.923Z,10.03
2022-12-09T02:07:38.248Z,10.37
2022-12-09T02:10:11.300Z,10.50
2022-12-09T02:12:56.935Z,11.07
2022-12-09T02:15:53.337Z,10.83
2022-12-09T02:18:40.912Z,10.83
2022-12-09T02:21:16.521Z,10.97
2022-12-09T02:24:00.414Z,10.60
2022-12-09T02:26:50.723Z,11.20
2022-12-09T02:29:28.288Z,11.37
2022-12-09T02:32:29.395Z,11.07
2022-12-09T02:35:05.819Z,11.07
2022-12-09T02:37:57.668Z,11.03
2022-12-09T02:40:47.982Z,11.23
2022-12-09T02:43:17.916Z,11.57
2022-12-09T02:45:45.285Z,10.70
2022-12-09T02:48:16.618Z,11.37
2022-12-09T02:50:46.392Z,11.37
2022-12-09T02:53:14.736Z,10.83
2022-12-09T02:55:44.103Z,11.43
2022-12-09T02:58:11.118Z,10.23
2022-12-09T03:00:39.477Z,11.17
2022-12-09T03:03:10.580Z,10.10
2022-12-09T03:06:01.523Z,11.63
2022-12-09T03:08:31.663Z,10.67
2022-12-09T03:11:02.936Z,11.10
2022-12-09T03:14:03.552Z,10.63
2022-12-09T03:16:35.938Z,10.40
2022-12-09T03:19:26.690Z,11.23
2022-12-09T03:21:59.829Z,11.10
2022-12-09T03:24:33.280Z,11.00
2022-12-09T03:27:03.680Z,11.07
2022-12-09T03:29:33.876Z,10.47
2022-12-09T03:32:01.384Z,10.67
2022-12-09T03:34:32.300Z,11.33
2022-12-09T03:37:01.889Z,10.27
2022-12-09T03:39:32.422Z,10.57
2022-12-09T03:42:03.767Z,10.60
2022-12-09T03:44:37.809Z,10.27
2022-12-09T03:47:06.866Z,10.20
2022-12-09T03:49:33.922Z,10.30
2022-12-09T03:52:22.734Z,9.80
2022-12-09T03:55:00.537Z,10.10
2022-12-09T03:57:29.192Z,9.83
2022-12-09T04:00:00.765Z,11.27
2022-12-09T04:02:28.307Z,9.23
2022-12-09T04:04:55.283Z,10.03
2022-12-09T04:07:22.203Z,10.13
2022-12-09T04:09:49.055Z,10.27
2022-12-09T04:12:15.791Z,10.27
2022-12-09T04:14:42.604Z,9.43
2022-12-09T04:17:11.217Z,9.63
2022-12-09T04:19:38.215Z,10.30
2022-12-09T04:22:04.844Z,10.07
2022-12-09T04:24:31.700Z,9.60
2022-12-09T04:26:58.631Z,10.47
2022-12-09T04:29:25.328Z,9.70
2022-12-09T04:31:52.119Z,9.77
2022-12-09T04:34:18.776Z,9.47
2022-12-09T04:36:45.583Z,9.90
2022-12-09T04:39:12.136Z,10.70
2022-12-09T04:41:38.951Z,10.20
2022-12-09T04:44:06.442Z,9.93
2022-12-09T04:46:33.484Z,9.93
2022-12-09T04:49:00.564Z,10.00
2022-12-09T04:51:27.355Z,10.87
2022-12-09T04:53:54.948Z,10.80
2022-12-09T04:56:23.091Z,10.77
2022-12-09T04:58:50.805Z,10.40
2022-12-09T05:01:28.225Z,11.47
2022-12-09T05:03:57.308Z,11.13
2022-12-09T05:06:24.525Z,11.07
2022-12-09T05:08:52.059Z,11.23
2022-12-09T05:11:20.547Z,11.60
2022-12-09T05:13:47.924Z,10.63
2022-12-09T05:16:17.474Z,10.80
2022-12-09T05:18:46.613Z,11.70
2022-12-09T05:21:19.327Z,11.80
2022-12-09T05:23:46.679Z,11.90
2022-12-09T05:26:16.919Z,11.13
2022-12-09T05:28:44.327Z,11.07
2022-12-09T05:31:19.727Z,11.57
2022-12-09T05:33:48.802Z,11.00
2022-12-09T05:36:17.865Z,12.50
2022-12-09T05:38:45.045Z,11.47
2022-12-09T05:41:12.168Z,11.40
2022-12-09T05:43:39.082Z,11.80
2022-12-09T05:46:06.720Z,11.73
2022-12-09T05:48:34.494Z,12.00
2022-12-09T05:51:05.939Z,11.17
2022-12-09T05:53:33.460Z,12.17
2022-12-09T05:56:00.875Z,11.60
2022-12-09T05:58:27.787Z,11.60
2022-12-09T06:00:58.004Z,13.03
2022-12-09T06:03:25.406Z,12.27
2022-12-09T06:05:52.487Z,13.03
2022-12-09T06:08:19.607Z,12.87
2022-12-09T06:10:46.431Z,13.27
2022-12-09T06:13:13.950Z,13.77
2022-12-09T06:15:40.976Z,12.30
2022-12-09T06:18:08.141Z,13.00
2022-12-09T06:20:34.912Z,12.77
2022-12-09T06:23:01.891Z,12.20
2022-12-09T06:25:28.594Z,12.30
2022-12-09T06:27:55.220Z,13.30
2022-12-09T06:30:21.790Z,13.43
2022-12-09T06:32:49.164Z,13.23
2022-12-09T06:35:16.786Z,13.07
2022-12-09T06:37:43.722Z,13.97
2022-12-09T06:40:11.174Z,13.30
2022-12-09T06:42:38.341Z,14.97
2022-12-09T06:45:06.538Z,13.17
2022-12-09T06:47:33.855Z,13.63
2022-12-09T06:50:06.610Z,12.83
2022-12-09T06:52:34.329Z,14.17
2022-12-09T06:55:01.455Z,13.67
2022-12-09T06:57:28.173Z,13.00
2022-12-09T06:59:55.620Z,13.43
2022-12-09T07:02:22.822Z,13.67
2022-12-09T07:04:54.304Z,13.37
2022-12-09T07:07:21.898Z,13.60
2022-12-09T07:09:49.420Z,13.60
2022-12-09T07:12:16.552Z,14.80
2022-12-09T07:14:43.252Z,14.80
2022-12-09T07:17:19.405Z,13.93
2022-12-09T07:19:47.312Z,13.90
2022-12-09T07:22:14.649Z,13.70
2022-12-09T07:24:41.965Z,13.87
2022-12-09T07:27:15.777Z,13.60
2022-12-09T07:29:45.806Z,15.30
2022-12-09T07:32:12.574Z,13.57
2022-12-09T07:34:39.733Z,14.77
2022-12-09T07:37:06.603Z,15.40
2022-12-09T07:39:33.582Z,14.60
2022-12-09T07:42:00.350Z,14.47
2022-12-09T07:44:30.444Z,16.00
2022-12-09T07:46:57.507Z,14.07
2022-12-09T07:49:24.900Z,14.10
2022-12-09T07:51:52.166Z,14.93
2022-12-09T07:54:20.521Z,13.93
2022-12-09T07:56:47.833Z,15.23
2022-12-09T07:59:15.510Z,15.07
2022-12-09T08:01:42.949Z,14.90
2022-12-09T08:04:10.232Z,15.00
2022-12-09T08:06:38.012Z,14.50
2022-12-09T08:09:10.519Z,13.90
2022-12-09T08:11:37.835Z,15.63
2022-12-09T08:14:12.173Z,14.13
2022-12-09T08:16:40.575Z,14.33
2022-12-09T08:19:08.042Z,14.03
2022-12-09T08:21:35.308Z,15.53
2022-12-09T08:24:06.028Z,14.40
2022-12-09T08:26:34.088Z,14.37
2022-12-09T08:29:01.346Z,15.40
2022-12-09T08:31:29.147Z,15.10
2022-12-09T08:33:56.830Z,15.17
2022-12-09T08:36:26.429Z,18.67
2022-12-09T08:38:53.836Z,22.23
2022-12-09T08:41:35.373Z,19.13
2022-12-09T08:44:12.174Z,20.93
2022-12-09T08:46:41.012Z,36.90
2022-12-09T08:49:09.156Z,36.67
2022-12-09T08:51:36.836Z,24.23
2022-12-09T08:54:05.309Z,20.63
2022-12-09T08:56:33.704Z,18.93
2022-12-09T08:59:00.639Z,17.43
2022-12-09T09:01:38.095Z,16.53
2022-12-09T09:04:08.735Z,17.20
2022-12-09T09:06:37.895Z,17.40
2022-12-09T09:09:06.840Z,17.03
2022-12-09T09:11:34.392Z,17.37
2022-12-09T09:14:04.159Z,15.47
2022-12-09T09:16:31.372Z,16.67
2022-12-09T09:18:58.287Z,17.67
2022-12-09T09:21:26.949Z,16.43
2022-12-09T09:23:54.081Z,17.60
2022-12-09T09:26:23.856Z,17.03
2022-12-09T09:28:51.647Z,17.87
2022-12-09T09:31:20.461Z,17.83
2022-12-09T09:33:47.995Z,15.83
2022-12-09T09:36:18.895Z,16.80
2022-12-09T09:38:45.915Z,16.17
2022-12-09T09:41:41.853Z,16.20
2022-12-09T09:44:39.527Z,15.57
2022-12-09T09:47:28.574Z,16.50
2022-12-09T09:50:18.960Z,15.87
2022-12-09T09:52:46.015Z,16.33
2022-12-09T09:55:18.348Z,14.97
2022-12-09T09:58:20.831Z,15.23
2022-12-09T10:00:58.306Z,14.47
2022-12-09T10:03:56.344Z,15.53
2022-12-09T10:06:31.481Z,15.40
2022-12-09T10:09:05.077Z,14.07
2022-12-09T10:11:56.394Z,17.47
2022-12-09T10:14:35.161Z,14.97
2022-12-09T10:17:24.059Z,16.47
2022-12-09T10:19:55.541Z,16.00
2022-12-09T10:22:27.105Z,16.70
2022-12-09T10:24:57.139Z,16.63
2022-12-09T10:27:27.163Z,17.03
2022-12-09T10:30:00.863Z,17.40
2022-12-09T10:32:31.576Z,17.00
2022-12-09T10:34:59.268Z,18.47
2022-12-09T10:37:35.221Z,18.63
2022-12-09T10:40:06.510Z,21.37
2022-12-09T10:43:05.022Z,21.77
2022-12-09T10:46:00.181Z,20.67
2022-12-09T10:48:33.476Z,20.97
2022-12-09T10:51:22.223Z,21.50
2022-12-09T10:54:06.956Z,20.23
2022-12-09T10:56:39.386Z,20.13
2022-12-09T10:59:27.240Z,21.40
2022-12-09T11:01:59.970Z,20.97
2022-12-09T11:04:43.157Z,20.10
2022-12-09T11:07:13.338Z,19.00
2022-12-09T11:09:58.830Z,19.53
2022-12-09T11:12:32.127Z,19.73
2022-12-09T11:15:30.478Z,20.90
2022-12-09T11:18:06.984Z,21.17
2022-12-09T11:20:34.866Z,21.20
2022-12-09T11:23:17.120Z,21.03
2022-12-09T11:26:00.261Z,21.20
2022-12-09T11:28:30.378Z,20.63
2022-12-09T11:31:29.080Z,21.37
2022-12-09T11:34:27.198Z,19.77
2022-12-09T11:36:57.757Z,20.63
2022-12-09T11:39:28.825Z,21.70
2022-12-09T11:42:17.184Z,19.33
2022-12-09T11:45:06.541Z,18.07
2022-12-09T11:48:13.591Z,17.37
2022-12-09T11:50:32.187Z,17.43
2022-12-09T11:53:24.993Z,19.97
2022-12-09T11:56:13.751Z,16.80
2022-12-09T11:58:49.717Z,15.47
2022-12-09T12:01:27.668Z,14.97
2022-12-09T12:03:57.716Z,14.73
2022-12-09T12:06:29.141Z,14.43
2022-12-09T12:09:11.586Z,14.57
2022-12-09T12:11:55.186Z,13.70
2022-12-09T12:14:26.727Z,13.23
2022-12-09T12:17:09.671Z,12.83
2022-12-09T12:19:40.883Z,12.17
2022-12-09T12:22:47.007Z,13.17
2022-12-09T12:25:40.722Z,12.10
2022-12-09T12:28:22.689Z,12.60
2022-12-09T12:31:01.643Z,14.00
2022-12-09T12:34:22.815Z,12.73
2022-12-09T12:36:57.212Z,13.87
2022-12-09T12:39:44.736Z,11.50
2022-12-09T12:43:04.994Z,11.73
2022-12-09T12:46:02.438Z,11.60
2022-12-09T12:48:57.611Z,10.43
2022-12-09T12:51:35.123Z,10.27
2022-12-09T12:54:17.168Z,10.20
2022-12-09T12:57:00.905Z,10.93
2022-12-09T12:59:57.741Z,11.33
2022-12-09T13:02:41.276Z,10.50
2022-12-09T13:05:25.970Z,11.90
2022-12-09T13:08:07.835Z,11.93
2022-12-09T13:10:41.972Z,11.40
2022-12-09T13:13:36.493Z,13.13
2022-12-09T13:16:18.056Z,11.73
2022-12-09T13:18:44.972Z,11.80
2022-12-09T13:21:12.497Z,11.50
2022-12-09T13:24:01.876Z,11.20
2022-12-09T13:26:44.518Z,10.77
2022-12-09T13:29:36.021Z,10.70
2022-12-09T13:32:40.447Z,12.30
2022-12-09T13:35:14.226Z,11.50
2022-12-09T13:37:43.552Z,9.83
2022-12-09T13:40:32.416Z,10.83
2022-12-09T13:43:01.700Z,9.60
2022-12-09T13:45:47.701Z,10.53
2022-12-09T13:48:17.219Z,9.50
2022-12-09T13:50:57.275Z,9.30
2022-12-09T13:53:29.431Z,10.30
2022-12-09T13:56:05.435Z,10.43
2022-12-09T13:58:37.742Z,10.90
2022-12-09T14:01:13.391Z,9.73
2022-12-09T14:03:58.062Z,10.17
2022-12-09T14:06:38.869Z,10.87
2022-12-09T14:09:30.255Z,10.50
2022-12-09T14:12:00.354Z,10.23
2022-12-09T14:14:26.840Z,10.10
2022-12-09T14:16:55.262Z,10.03
2022-12-09T14:19:24.789Z,10.30
2022-12-09T14:22:22.905Z,10.50
2022-12-09T14:24:54.252Z,11.53
2022-12-09T14:27:29.475Z,10.27
2022-12-09T14:29:57.104Z,11.43
2022-12-09T14:32:52.750Z,11.83
2022-12-09T14:35:41.815Z,11.17
2022-12-09T14:38:32.631Z,10.33
2022-12-09T14:41:18.202Z,10.30
2022-12-09T14:43:50.638Z,10.27
2022-12-09T14:46:33.685Z,9.30
2022-12-09T14:49:13.519Z,9.13
2022-12-09T14:51:50.109Z,9.27
2022-12-09T14:54:33.285Z,9.27
2022-12-09T14:57:03.615Z,8.20
2022-12-09T14:59:31.930Z,8.50
2022-12-09T15:02:03.496Z,9.27
2022-12-09T15:04:42.053Z,9.10
2022-12-09T15:07:25.046Z,8.43
2022-12-09T15:10:30.806Z,8.20
2022-12-09T15:13:00.206Z,9.67
2022-12-09T15:15:39.473Z,9.63
2022-12-09T15:18:20.806Z,9.40
2022-12-09T15:20:56.543Z,8.87
2022-12-09T15:23:30.356Z,8.50
2022-12-09T15:26:00.518Z,9.67
2022-12-09T15:28:32.374Z,9.60
2022-12-09T15:31:02.026Z,8.90
2022-12-09T15:33:31.340Z,8.73
2022-12-09T15:36:08.746Z,9.00
2022-12-09T15:38:43.993Z,8.50
2022-12-09T15:41:29.465Z,9.07
2022-12-09T15:44:00.498Z,9.17
2022-12-09T15:46:28.231Z,8.83
2022-12-09T15:48:58.512Z,9.60
2022-12-09T15:51:26.764Z,10.13
2022-12-09T15:53:58.417Z,15.03
2022-12-09T15:56:46.941Z,10.40
2022-12-09T15:59:33.801Z,9.93
2022-12-09T16:02:01.140Z,10.27
2022-12-09T16:04:36.628Z,9.53
2022-12-09T16:07:08.466Z,9.90
2022-12-09T16:09:35.564Z,10.97
2022-12-09T16:12:02.233Z,9.23
2022-12-09T16:14:44.264Z,10.73
2022-12-09T16:17:21.526Z,11.77
2022-12-09T16:19:48.430Z,11.37
2022-12-09T16:22:14.937Z,11.47
2022-12-09T16:25:16.615Z,11.23
2022-12-09T16:27:48.361Z,12.53
2022-12-09T16:30:21.355Z,12.70
2022-12-09T16:32:51.772Z,11.90
2022-12-09T16:35:40.220Z,11.10
2022-12-09T16:38:16.044Z,10.50
2022-12-09T16:40:45.393Z,10.27
2022-12-09T16:43:17.828Z,11.03
2022-12-09T16:45:49.362Z,11.47
2022-12-09T16:48:17.315Z,12.17
2022-12-09T16:50:49.150Z,11.80
2022-12-09T16:53:22.124Z,12.50
2022-12-09T16:55:52.084Z,11.00
2022-12-09T16:58:19.223Z,11.33
2022-12-09T17:00:46.768Z,11.83
2022-12-09T17:03:26.425Z,14.37
2022-12-09T17:05:52.967Z,12.17
2022-12-09T17:08:19.617Z,12.90
2022-12-09T17:10:46.340Z,11.93
2022-12-09T17:13:12.943Z,12.07
2022-12-09T17:15:42.571Z,13.07
2022-12-09T17:18:10.594Z,12.80
2022-12-09T17:20:38.233Z,12.00
2022-12-09T17:23:05.327Z,12.67
2022-12-09T17:25:33.253Z,12.33
2022-12-09T17:28:04.963Z,12.90
2022-12-09T17:30:31.522Z,12.03
2022-12-09T17:33:00.942Z,12.50
2022-12-09T17:35:27.544Z,10.73
2022-12-09T17:37:54.194Z,11.23
2022-12-09T17:40:20.804Z,11.40
2022-12-09T17:42:47.406Z,10.63
2022-12-09T17:45:13.947Z,10.77
2022-12-09T17:47:40.543Z,10.20
2022-12-09T17:50:07.668Z,9.97
2022-12-09T17:52:34.610Z,9.73
2022-12-09T17:55:01.238Z,10.10
2022-12-09T17:57:27.854Z,10.83
2022-12-09T17:59:54.387Z,9.60
2022-12-09T18:02:21.092Z,10.63
2022-12-09T18:04:47.690Z,10.40
2022-12-09T18:07:14.290Z,12.43
2022-12-09T18:09:40.863Z,10.70
2022-12-09T18:12:07.519Z,8.67
2022-12-09T18:14:34.122Z,8.10
2022-12-09T18:17:01.291Z,9.07
2022-12-09T18:19:29.843Z,9.17
2022-12-09T18:21:56.712Z,9.07
2022-12-09T18:24:23.627Z,7.87
2022-12-09T18:26:50.276Z,7.30
2022-12-09T18:29:16.837Z,8.53
2022-12-09T18:31:45.636Z,9.13
2022-12-09T18:34:12.581Z,10.20
2022-12-09T18:36:39.235Z,9.83
2022-12-09T18:39:05.966Z,9.67
2022-12-09T18:41:33.222Z,9.93
2022-12-09T18:44:07.320Z,9.60
2022-12-09T18:46:39.326Z,9.70
2022-12-09T18:49:21.545Z,9.90
2022-12-09T18:51:50.067Z,10.03
2022-12-09T18:54:19.804Z,10.03
2022-12-09T18:56:46.854Z,9.47
2022-12-09T18:59:13.671Z,8.77
2022-12-09T19:01:42.839Z,8.83
2022-12-09T19:04:18.626Z,7.27
2022-12-09T19:06:47.726Z,8.00
2022-12-09T19:09:17.501Z,7.70
2022-12-09T19:11:46.066Z,8.13
2022-12-09T19:14:14.148Z,7.43
2022-12-09T19:16:41.111Z,8.17
2022-12-09T19:19:10.497Z,9.20
2022-12-09T19:21:37.667Z,8.73
2022-12-09T19:24:04.932Z,8.90
2022-12-09T19:26:33.872Z,9.10
2022-12-09T19:29:03.682Z,9.27
2022-12-09T19:31:33.341Z,9.53
2022-12-09T19:34:02.417Z,9.10
2022-12-09T19:36:30.567Z,9.57
2022-12-09T19:39:01.439Z,9.43
2022-12-09T19:41:28.073Z,9.17
2022-12-09T19:43:55.870Z,8.37
2022-12-09T19:46:23.259Z,9.33
2022-12-09T19:48:49.995Z,8.67
2022-12-09T19:51:19.105Z,8.93
2022-12-09T19:53:46.500Z,8.27
2022-12-09T19:56:18.309Z,9.30
2022-12-09T19:58:45.906Z,9.30
2022-12-09T20:01:25.278Z,8.30
2022-12-09T20:04:08.814Z,9.27
2022-12-09T20:06:46.804Z,8.37
2022-12-09T20:09:17.472Z,9.50
2022-12-09T20:11:44.226Z,8.70
2022-12-09T20:14:13.099Z,8.70
2022-12-09T20:16:40.091Z,8.03
2022-12-09T20:19:07.374Z,7.93
2022-12-09T20:21:35.190Z,8.87
2022-12-09T20:24:02.720Z,8.53
2022-12-09T20:26:32.086Z,8.87
2022-12-09T20:29:02.439Z,8.73
2022-12-09T20:31:31.538Z,8.50
2022-12-09T20:34:04.507Z,8.27
2022-12-09T20:36:33.012Z,8.10
2022-12-09T20:39:02.210Z,8.03
2022-12-09T20:41:29.623Z,8.20
2022-12-09T20:43:58.716Z,9.50
2022-12-09T20:46:28.578Z,8.90
2022-12-09T20:48:56.174Z,8.67
2022-12-09T20:51:26.546Z,8.70
2022-12-09T20:53:54.561Z,9.23
2022-12-09T20:56:22.310Z,8.67
2022-12-09T20:58:51.076Z,8.97
2022-12-09T21:01:23.489Z,9.10
2022-12-09T21:03:50.932Z,8.90
2022-12-09T21:06:21.011Z,9.17
2022-12-09T21:08:47.736Z,9.03
2022-12-09T21:11:22.716Z,8.47
2022-12-09T21:13:51.939Z,8.83
2022-12-09T21:16:25.358Z,8.60
2022-12-09T21:18:54.314Z,9.00
2022-12-09T21:21:23.240Z,8.63
2022-12-09T21:23:54.036Z,9.53
2022-12-09T21:26:23.443Z,8.93
2022-12-09T21:28:51.199Z,8.53
2022-12-09T21:31:23.846Z,8.63
2022-12-09T21:33:52.346Z,9.43
2022-12-09T21:36:21.543Z,8.63
2022-12-09T21:38:48.174Z,9.20
2022-12-09T21:41:18.517Z,8.57
2022-12-09T21:43:45.663Z,8.73
2022-12-09T21:46:15.624Z,8.43
2022-12-09T21:48:42.346Z,8.40
2022-12-09T21:51:11.303Z,8.57
2022-12-09T21:53:38.170Z,8.17
2022-12-09T21:56:07.065Z,8.93
2022-12-09T21:58:34.054Z,8.67
2022-12-09T22:01:07.418Z,9.07
2022-12-09T22:03:34.008Z,8.97
2022-12-09T22:06:00.860Z,9.03
2022-12-09T22:08:27.830Z,8.50
2022-12-09T22:10:54.421Z,9.40
2022-12-09T22:13:22.624Z,9.73
2022-12-09T22:15:50.515Z,8.90
2022-12-09T22:18:17.618Z,9.60
2022-12-09T22:21:15.883Z,10.00
2022-12-09T22:23:30.883Z,9.10
2022-12-09T22:25:57.414Z,10.13
2022-12-09T22:28:23.990Z,8.27
2022-12-09T22:30:50.627Z,9.40
2022-12-09T22:33:17.207Z,8.70
2022-12-09T22:35:43.775Z,8.83
2022-12-09T22:38:14.441Z,9.27
2022-12-09T22:40:41.790Z,8.63
2022-12-09T22:43:08.429Z,9.00
2022-12-09T22:45:35.894Z,8.83
2022-12-09T22:48:02.758Z,8.00
2022-12-09T22:50:29.398Z,8.73
2022-12-09T22:52:56.119Z,8.17
2022-12-09T22:55:22.915Z,9.30
2022-12-09T22:57:49.744Z,9.73
2022-12-09T23:00:17.475Z,9.23
2022-12-09T23:02:44.134Z,9.10
2022-12-09T23:05:10.779Z,9.60
2022-12-09T23:07:37.373Z,9.57
2022-12-09T23:10:04.637Z,8.50
2022-12-09T23:12:31.180Z,9.47
2022-12-09T23:14:57.773Z,9.30
2022-12-09T23:17:24.316Z,9.20
2022-12-09T23:19:50.974Z,8.90
2022-12-09T23:22:17.513Z,9.33
2022-12-09T23:24:44.123Z,8.67
2022-12-09T23:27:10.699Z,8.93
2022-12-09T23:29:38.247Z,8.77
2022-12-09T23:32:04.906Z,10.13
2022-12-09T23:34:31.455Z,8.97
2022-12-09T23:36:58.466Z,9.17
2022-12-09T23:39:25.042Z,9.37
2022-12-09T23:41:51.577Z,9.57
2022-12-09T23:44:19.239Z,9.37
2022-12-09T23:46:46.271Z,10.03
2022-12-09T23:49:12.953Z,9.70
2022-12-09T23:51:43.645Z,9.73
2022-12-09T23:54:11.780Z,9.33
2022-12-09T23:56:39.888Z,9.70
2022-12-09T23:59:08.605Z,9.40
